sensor_id;sensor_type;location;lat;lon;timestamp;P1;durP1;ratioP1;P2;durP2;ratioP2
34695;SDS011;20918;51.138;17.370;2023-11-21T00:03:30;6.30;;;4.10;;
34695;SDS011;20918;51.138;17.370;2023-11-21T00:06:31;6.20;;;4.10;;
34695;SDS011;20918;51.138;17.370;2023-11-21T00:09:32;7.20;;;4.30;;
34695;SDS011;20918;51.138;17.370;2023-11-21T00:12:33;6.00;;;4.80;;
34695;SDS011;20918;51.138;17.370;2023-11-21T00:15:34;7.20;;;4.80;;
34695;SDS011;20918;51.138;17.370;2023-11-21T00:18:35;11.00;;;5.30;;
34695;SDS011;20918;51.138;17.370;2023-11-21T00:21:36;8.80;;;4.70;;
34695;SDS011;20918;51.138;17.370;2023-11-21T00:24:36;7.10;;;4.90;;
34695;SDS011;20918;51.138;17.370;2023-11-21T00:27:37;8.60;;;5.10;;
34695;SDS011;20918;51.138;17.370;2023-11-21T00:30:37;10.80;;;4.90;;
34695;SDS011;20918;51.138;17.370;2023-11-21T00:36:38;7.10;;;4.40;;
34695;SDS011;20918;51.138;17.370;2023-11-21T00:39:39;8.20;;;4.80;;
34695;SDS011;20918;51.138;17.370;2023-11-21T00:42:40;10.40;;;5.40;;
34695;SDS011;20918;51.138;17.370;2023-11-21T00:45:41;9.50;;;5.20;;
34695;SDS011;20918;51.138;17.370;2023-11-21T00:48:42;6.60;;;4.80;;
34695;SDS011;20918;51.138;17.370;2023-11-21T00:51:43;8.20;;;5.10;;
34695;SDS011;20918;51.138;17.370;2023-11-21T00:54:43;8.10;;;4.90;;
34695;SDS011;20918;51.138;17.370;2023-11-21T00:57:45;15.90;;;5.00;;
34695;SDS011;20918;51.138;17.370;2023-11-21T01:00:45;10.10;;;5.00;;
34695;SDS011;20918;51.138;17.370;2023-11-21T01:03:48;8.10;;;5.00;;
34695;SDS011;20918;51.138;17.370;2023-11-21T01:06:49;6.40;;;4.60;;
34695;SDS011;20918;51.138;17.370;2023-11-21T01:09:49;10.20;;;4.90;;
34695;SDS011;20918;51.138;17.370;2023-11-21T01:12:50;9.70;;;4.50;;
34695;SDS011;20918;51.138;17.370;2023-11-21T01:15:50;10.00;;;4.80;;
34695;SDS011;20918;51.138;17.370;2023-11-21T01:18:51;9.80;;;4.90;;
34695;SDS011;20918;51.138;17.370;2023-11-21T01:21:51;12.10;;;4.90;;
34695;SDS011;20918;51.138;17.370;2023-11-21T01:24:53;10.70;;;5.30;;
34695;SDS011;20918;51.138;17.370;2023-11-21T01:27:53;7.80;;;4.60;;
34695;SDS011;20918;51.138;17.370;2023-11-21T01:30:54;9.30;;;4.80;;
34695;SDS011;20918;51.138;17.370;2023-11-21T01:33:56;5.70;;;4.00;;
34695;SDS011;20918;51.138;17.370;2023-11-21T01:36:57;8.40;;;4.50;;
34695;SDS011;20918;51.138;17.370;2023-11-21T01:39:58;10.90;;;4.30;;
34695;SDS011;20918;51.138;17.370;2023-11-21T01:43:02;9.80;;;4.90;;
34695;SDS011;20918;51.138;17.370;2023-11-21T01:46:05;7.40;;;4.40;;
34695;SDS011;20918;51.138;17.370;2023-11-21T01:49:06;12.20;;;4.60;;
34695;SDS011;20918;51.138;17.370;2023-11-21T01:52:07;10.90;;;5.00;;
34695;SDS011;20918;51.138;17.370;2023-11-21T01:55:08;10.50;;;4.90;;
34695;SDS011;20918;51.138;17.370;2023-11-21T02:01:11;11.50;;;4.80;;
34695;SDS011;20918;51.138;17.370;2023-11-21T02:04:12;7.80;;;5.10;;
34695;SDS011;20918;51.138;17.370;2023-11-21T02:07:13;9.40;;;5.10;;
34695;SDS011;20918;51.138;17.370;2023-11-21T02:10:15;12.20;;;5.00;;
34695;SDS011;20918;51.138;17.370;2023-11-21T02:13:16;9.10;;;4.50;;
34695;SDS011;20918;51.138;17.370;2023-11-21T02:16:16;7.70;;;5.10;;
34695;SDS011;20918;51.138;17.370;2023-11-21T02:19:17;14.30;;;4.70;;
34695;SDS011;20918;51.138;17.370;2023-11-21T02:22:23;8.30;;;4.70;;
34695;SDS011;20918;51.138;17.370;2023-11-21T02:25:27;9.90;;;5.00;;
34695;SDS011;20918;51.138;17.370;2023-11-21T02:28:29;10.70;;;4.90;;
34695;SDS011;20918;51.138;17.370;2023-11-21T02:31:30;8.00;;;4.90;;
34695;SDS011;20918;51.138;17.370;2023-11-21T02:34:32;10.40;;;4.50;;
34695;SDS011;20918;51.138;17.370;2023-11-21T02:37:33;7.60;;;4.50;;
34695;SDS011;20918;51.138;17.370;2023-11-21T02:40:35;8.40;;;4.90;;
34695;SDS011;20918;51.138;17.370;2023-11-21T02:43:35;8.40;;;4.50;;
34695;SDS011;20918;51.138;17.370;2023-11-21T02:46:38;12.40;;;5.20;;
34695;SDS011;20918;51.138;17.370;2023-11-21T02:49:40;10.30;;;4.70;;
34695;SDS011;20918;51.138;17.370;2023-11-21T02:52:40;12.00;;;3.80;;
34695;SDS011;20918;51.138;17.370;2023-11-21T02:55:41;5.80;;;3.90;;
34695;SDS011;20918;51.138;17.370;2023-11-21T02:58:41;7.90;;;4.30;;
34695;SDS011;20918;51.138;17.370;2023-11-21T03:01:43;10.00;;;4.30;;
34695;SDS011;20918;51.138;17.370;2023-11-21T03:04:44;5.80;;;4.00;;
34695;SDS011;20918;51.138;17.370;2023-11-21T03:07:44;8.60;;;4.30;;
34695;SDS011;20918;51.138;17.370;2023-11-21T03:10:45;7.20;;;4.10;;
34695;SDS011;20918;51.138;17.370;2023-11-21T03:13:46;7.80;;;3.70;;
34695;SDS011;20918;51.138;17.370;2023-11-21T03:16:47;8.60;;;3.80;;
34695;SDS011;20918;51.138;17.370;2023-11-21T03:19:49;8.00;;;3.70;;
34695;SDS011;20918;51.138;17.370;2023-11-21T03:22:49;6.00;;;3.40;;
34695;SDS011;20918;51.138;17.370;2023-11-21T03:25:50;5.50;;;3.50;;
34695;SDS011;20918;51.138;17.370;2023-11-21T03:28:50;4.80;;;3.50;;
34695;SDS011;20918;51.138;17.370;2023-11-21T03:31:53;6.40;;;4.00;;
34695;SDS011;20918;51.138;17.370;2023-11-21T03:34:56;6.40;;;4.20;;
34695;SDS011;20918;51.138;17.370;2023-11-21T03:37:57;7.20;;;4.00;;
34695;SDS011;20918;51.138;17.370;2023-11-21T03:40:58;6.90;;;3.80;;
34695;SDS011;20918;51.138;17.370;2023-11-21T03:43:59;8.80;;;4.90;;
34695;SDS011;20918;51.138;17.370;2023-11-21T03:46:59;7.70;;;4.70;;
34695;SDS011;20918;51.138;17.370;2023-11-21T03:50:00;8.50;;;4.10;;
34695;SDS011;20918;51.138;17.370;2023-11-21T03:53:01;6.70;;;3.70;;
34695;SDS011;20918;51.138;17.370;2023-11-21T03:56:02;8.00;;;4.70;;
34695;SDS011;20918;51.138;17.370;2023-11-21T03:59:04;9.60;;;4.90;;
34695;SDS011;20918;51.138;17.370;2023-11-21T04:02:04;14.50;;;7.90;;
34695;SDS011;20918;51.138;17.370;2023-11-21T04:05:05;10.80;;;6.70;;
34695;SDS011;20918;51.138;17.370;2023-11-21T04:08:07;13.90;;;6.10;;
34695;SDS011;20918;51.138;17.370;2023-11-21T04:11:07;13.90;;;6.10;;
34695;SDS011;20918;51.138;17.370;2023-11-21T04:14:08;12.50;;;6.90;;
34695;SDS011;20918;51.138;17.370;2023-11-21T04:17:09;9.90;;;6.70;;
34695;SDS011;20918;51.138;17.370;2023-11-21T04:20:10;8.90;;;7.00;;
34695;SDS011;20918;51.138;17.370;2023-11-21T04:23:10;9.30;;;6.40;;
34695;SDS011;20918;51.138;17.370;2023-11-21T04:26:13;12.80;;;6.70;;
34695;SDS011;20918;51.138;17.370;2023-11-21T04:29:14;16.40;;;6.70;;
34695;SDS011;20918;51.138;17.370;2023-11-21T04:32:14;11.00;;;7.20;;
34695;SDS011;20918;51.138;17.370;2023-11-21T04:35:15;11.10;;;7.30;;
34695;SDS011;20918;51.138;17.370;2023-11-21T04:38:15;11.40;;;7.20;;
34695;SDS011;20918;51.138;17.370;2023-11-21T04:41:16;9.70;;;6.80;;
34695;SDS011;20918;51.138;17.370;2023-11-21T04:44:18;9.90;;;6.60;;
34695;SDS011;20918;51.138;17.370;2023-11-21T04:47:18;13.30;;;7.30;;
34695;SDS011;20918;51.138;17.370;2023-11-21T04:50:20;10.20;;;6.90;;
34695;SDS011;20918;51.138;17.370;2023-11-21T04:53:20;10.90;;;6.90;;
34695;SDS011;20918;51.138;17.370;2023-11-21T04:56:21;11.20;;;7.60;;
34695;SDS011;20918;51.138;17.370;2023-11-21T04:59:21;12.40;;;6.90;;
34695;SDS011;20918;51.138;17.370;2023-11-21T05:02:24;13.90;;;6.70;;
34695;SDS011;20918;51.138;17.370;2023-11-21T05:05:25;11.50;;;6.00;;
34695;SDS011;20918;51.138;17.370;2023-11-21T05:08:25;9.20;;;6.80;;
34695;SDS011;20918;51.138;17.370;2023-11-21T05:11:26;10.50;;;6.60;;
34695;SDS011;20918;51.138;17.370;2023-11-21T05:14:29;9.80;;;6.80;;
34695;SDS011;20918;51.138;17.370;2023-11-21T05:17:30;11.20;;;6.40;;
34695;SDS011;20918;51.138;17.370;2023-11-21T05:20:31;11.10;;;6.70;;
34695;SDS011;20918;51.138;17.370;2023-11-21T05:23:33;12.30;;;6.90;;
34695;SDS011;20918;51.138;17.370;2023-11-21T05:26:34;13.60;;;7.20;;
34695;SDS011;20918;51.138;17.370;2023-11-21T05:29:34;8.20;;;5.70;;
34695;SDS011;20918;51.138;17.370;2023-11-21T05:32:35;12.00;;;6.90;;
34695;SDS011;20918;51.138;17.370;2023-11-21T05:35:35;10.90;;;6.20;;
34695;SDS011;20918;51.138;17.370;2023-11-21T05:38:36;10.90;;;6.50;;
34695;SDS011;20918;51.138;17.370;2023-11-21T05:41:36;10.10;;;6.40;;
34695;SDS011;20918;51.138;17.370;2023-11-21T05:44:37;7.00;;;5.70;;
34695;SDS011;20918;51.138;17.370;2023-11-21T05:47:45;8.60;;;5.40;;
34695;SDS011;20918;51.138;17.370;2023-11-21T05:50:46;10.30;;;5.80;;
34695;SDS011;20918;51.138;17.370;2023-11-21T05:53:48;9.00;;;6.00;;
34695;SDS011;20918;51.138;17.370;2023-11-21T05:56:49;9.60;;;6.00;;
34695;SDS011;20918;51.138;17.370;2023-11-21T05:59:50;7.70;;;5.40;;
34695;SDS011;20918;51.138;17.370;2023-11-21T06:02:52;7.80;;;5.90;;
34695;SDS011;20918;51.138;17.370;2023-11-21T06:05:53;8.50;;;6.20;;
34695;SDS011;20918;51.138;17.370;2023-11-21T06:08:54;7.90;;;5.80;;
34695;SDS011;20918;51.138;17.370;2023-11-21T06:11:55;11.30;;;6.80;;
34695;SDS011;20918;51.138;17.370;2023-11-21T06:14:56;11.70;;;6.50;;
34695;SDS011;20918;51.138;17.370;2023-11-21T06:17:56;10.20;;;5.80;;
34695;SDS011;20918;51.138;17.370;2023-11-21T06:20:57;6.80;;;5.10;;
34695;SDS011;20918;51.138;17.370;2023-11-21T06:23:58;5.90;;;4.70;;
34695;SDS011;20918;51.138;17.370;2023-11-21T06:26:59;9.00;;;5.60;;
34695;SDS011;20918;51.138;17.370;2023-11-21T06:29:59;8.00;;;5.80;;
34695;SDS011;20918;51.138;17.370;2023-11-21T06:36:01;11.30;;;6.00;;
34695;SDS011;20918;51.138;17.370;2023-11-21T06:39:02;7.80;;;5.90;;
34695;SDS011;20918;51.138;17.370;2023-11-21T06:42:08;10.50;;;6.50;;
34695;SDS011;20918;51.138;17.370;2023-11-21T06:45:08;10.10;;;5.60;;
34695;SDS011;20918;51.138;17.370;2023-11-21T06:48:11;8.00;;;5.60;;
34695;SDS011;20918;51.138;17.370;2023-11-21T06:51:11;10.50;;;6.30;;
34695;SDS011;20918;51.138;17.370;2023-11-21T06:54:13;11.50;;;6.40;;
34695;SDS011;20918;51.138;17.370;2023-11-21T06:57:14;11.70;;;6.70;;
34695;SDS011;20918;51.138;17.370;2023-11-21T07:00:15;10.20;;;6.40;;
34695;SDS011;20918;51.138;17.370;2023-11-21T07:03:18;12.30;;;7.00;;
34695;SDS011;20918;51.138;17.370;2023-11-21T07:06:19;16.40;;;8.20;;
34695;SDS011;20918;51.138;17.370;2023-11-21T07:09:20;11.80;;;7.70;;
34695;SDS011;20918;51.138;17.370;2023-11-21T07:12:23;10.10;;;8.30;;
34695;SDS011;20918;51.138;17.370;2023-11-21T07:15:26;13.00;;;7.50;;
34695;SDS011;20918;51.138;17.370;2023-11-21T07:18:26;8.60;;;6.60;;
34695;SDS011;20918;51.138;17.370;2023-11-21T07:24:27;13.60;;;8.90;;
34695;SDS011;20918;51.138;17.370;2023-11-21T07:27:28;15.00;;;8.80;;
34695;SDS011;20918;51.138;17.370;2023-11-21T07:30:28;16.40;;;8.90;;
34695;SDS011;20918;51.138;17.370;2023-11-21T07:33:29;16.40;;;8.80;;
34695;SDS011;20918;51.138;17.370;2023-11-21T07:36:29;16.60;;;9.40;;
34695;SDS011;20918;51.138;17.370;2023-11-21T07:39:30;20.20;;;10.80;;
34695;SDS011;20918;51.138;17.370;2023-11-21T07:42:30;23.90;;;12.10;;
34695;SDS011;20918;51.138;17.370;2023-11-21T07:45:32;14.20;;;10.00;;
34695;SDS011;20918;51.138;17.370;2023-11-21T07:48:33;13.70;;;9.00;;
34695;SDS011;20918;51.138;17.370;2023-11-21T07:51:35;13.40;;;8.40;;
34695;SDS011;20918;51.138;17.370;2023-11-21T07:54:35;13.40;;;9.00;;
34695;SDS011;20918;51.138;17.370;2023-11-21T07:57:36;11.20;;;7.80;;
34695;SDS011;20918;51.138;17.370;2023-11-21T08:00:36;12.70;;;9.30;;
34695;SDS011;20918;51.138;17.370;2023-11-21T08:03:38;14.50;;;8.80;;
34695;SDS011;20918;51.138;17.370;2023-11-21T08:06:38;14.00;;;8.60;;
34695;SDS011;20918;51.138;17.370;2023-11-21T08:09:39;14.10;;;9.30;;
34695;SDS011;20918;51.138;17.370;2023-11-21T08:12:39;16.10;;;9.50;;
34695;SDS011;20918;51.138;17.370;2023-11-21T08:15:40;12.10;;;9.20;;
34695;SDS011;20918;51.138;17.370;2023-11-21T08:18:41;13.30;;;8.40;;
34695;SDS011;20918;51.138;17.370;2023-11-21T08:21:41;14.20;;;9.40;;
34695;SDS011;20918;51.138;17.370;2023-11-21T08:24:42;20.20;;;12.60;;
34695;SDS011;20918;51.138;17.370;2023-11-21T08:30:44;15.90;;;11.30;;
34695;SDS011;20918;51.138;17.370;2023-11-21T08:33:44;20.60;;;11.80;;
34695;SDS011;20918;51.138;17.370;2023-11-21T08:36:45;11.60;;;9.70;;
34695;SDS011;20918;51.138;17.370;2023-11-21T08:39:47;13.90;;;9.40;;
34695;SDS011;20918;51.138;17.370;2023-11-21T08:42:48;12.30;;;8.80;;
34695;SDS011;20918;51.138;17.370;2023-11-21T08:48:49;12.90;;;8.70;;
34695;SDS011;20918;51.138;17.370;2023-11-21T08:51:52;11.90;;;9.00;;
34695;SDS011;20918;51.138;17.370;2023-11-21T08:54:55;13.30;;;9.10;;
34695;SDS011;20918;51.138;17.370;2023-11-21T09:00:59;14.00;;;10.00;;
34695;SDS011;20918;51.138;17.370;2023-11-21T09:03:59;15.00;;;9.00;;
34695;SDS011;20918;51.138;17.370;2023-11-21T09:07:00;14.40;;;8.90;;
34695;SDS011;20918;51.138;17.370;2023-11-21T09:10:00;11.00;;;8.30;;
34695;SDS011;20918;51.138;17.370;2023-11-21T09:13:02;12.60;;;8.00;;
34695;SDS011;20918;51.138;17.370;2023-11-21T09:16:03;20.50;;;13.20;;
34695;SDS011;20918;51.138;17.370;2023-11-21T09:19:03;23.40;;;16.30;;
34695;SDS011;20918;51.138;17.370;2023-11-21T09:22:05;31.60;;;20.30;;
34695;SDS011;20918;51.138;17.370;2023-11-21T09:25:06;33.20;;;20.40;;
34695;SDS011;20918;51.138;17.370;2023-11-21T09:28:08;34.40;;;21.10;;
34695;SDS011;20918;51.138;17.370;2023-11-21T09:31:09;38.50;;;21.30;;
34695;SDS011;20918;51.138;17.370;2023-11-21T09:34:10;38.80;;;22.90;;
34695;SDS011;20918;51.138;17.370;2023-11-21T09:37:11;41.80;;;24.50;;
34695;SDS011;20918;51.138;17.370;2023-11-21T09:40:12;49.30;;;29.70;;
34695;SDS011;20918;51.138;17.370;2023-11-21T09:43:17;49.10;;;28.90;;
34695;SDS011;20918;51.138;17.370;2023-11-21T09:46:17;51.30;;;28.90;;
34695;SDS011;20918;51.138;17.370;2023-11-21T09:49:22;40.60;;;24.30;;
34695;SDS011;20918;51.138;17.370;2023-11-21T09:52:28;39.30;;;23.80;;
34695;SDS011;20918;51.138;17.370;2023-11-21T09:55:29;42.00;;;24.10;;
34695;SDS011;20918;51.138;17.370;2023-11-21T09:58:36;47.30;;;29.10;;
34695;SDS011;20918;51.138;17.370;2023-11-21T10:01:37;53.60;;;32.60;;
34695;SDS011;20918;51.138;17.370;2023-11-21T10:04:39;55.90;;;33.50;;
34695;SDS011;20918;51.138;17.370;2023-11-21T10:10:43;55.80;;;32.90;;
34695;SDS011;20918;51.138;17.370;2023-11-21T10:13:45;59.20;;;35.70;;
34695;SDS011;20918;51.138;17.370;2023-11-21T10:16:47;54.40;;;32.20;;
34695;SDS011;20918;51.138;17.370;2023-11-21T10:19:49;61.30;;;36.40;;
34695;SDS011;20918;51.138;17.370;2023-11-21T10:22:50;65.30;;;40.50;;
34695;SDS011;20918;51.138;17.370;2023-11-21T10:25:51;53.40;;;33.20;;
34695;SDS011;20918;51.138;17.370;2023-11-21T10:28:59;51.10;;;31.30;;
34695;SDS011;20918;51.138;17.370;2023-11-21T10:32:04;47.70;;;28.90;;
34695;SDS011;20918;51.138;17.370;2023-11-21T10:35:06;47.30;;;29.60;;
34695;SDS011;20918;51.138;17.370;2023-11-21T10:38:10;48.80;;;26.90;;
34695;SDS011;20918;51.138;17.370;2023-11-21T10:41:11;43.00;;;26.40;;
34695;SDS011;20918;51.138;17.370;2023-11-21T10:44:16;53.00;;;27.90;;
34695;SDS011;20918;51.138;17.370;2023-11-21T10:47:24;47.20;;;27.60;;
34695;SDS011;20918;51.138;17.370;2023-11-21T10:50:26;45.50;;;26.90;;
34695;SDS011;20918;51.138;17.370;2023-11-21T10:53:28;52.40;;;31.10;;
34695;SDS011;20918;51.138;17.370;2023-11-21T10:56:29;57.50;;;33.40;;
34695;SDS011;20918;51.138;17.370;2023-11-21T10:59:30;56.80;;;35.50;;
34695;SDS011;20918;51.138;17.370;2023-11-21T11:02:31;61.30;;;36.40;;
34695;SDS011;20918;51.138;17.370;2023-11-21T11:05:34;60.60;;;35.30;;
34695;SDS011;20918;51.138;17.370;2023-11-21T11:08:36;58.10;;;35.30;;
34695;SDS011;20918;51.138;17.370;2023-11-21T11:11:39;91.20;;;51.50;;
34695;SDS011;20918;51.138;17.370;2023-11-21T11:14:41;72.70;;;40.50;;
34695;SDS011;20918;51.138;17.370;2023-11-21T11:17:43;72.60;;;39.50;;
34695;SDS011;20918;51.138;17.370;2023-11-21T11:20:45;80.50;;;44.00;;
34695;SDS011;20918;51.138;17.370;2023-11-21T11:27:30;70.00;;;39.00;;
34695;SDS011;20918;51.138;17.370;2023-11-21T11:37:20;70.80;;;39.00;;
34695;SDS011;20918;51.138;17.370;2023-11-21T11:40:22;65.50;;;36.10;;
34695;SDS011;20918;51.138;17.370;2023-11-21T11:43:26;62.30;;;34.40;;
34695;SDS011;20918;51.138;17.370;2023-11-21T11:46:40;68.00;;;35.20;;
34695;SDS011;20918;51.138;17.370;2023-11-21T11:53:14;75.70;;;40.50;;
34695;SDS011;20918;51.138;17.370;2023-11-21T11:59:20;61.30;;;33.90;;
34695;SDS011;20918;51.138;17.370;2023-11-21T12:02:22;57.60;;;32.20;;
34695;SDS011;20918;51.138;17.370;2023-11-21T12:05:23;43.30;;;25.10;;
34695;SDS011;20918;51.138;17.370;2023-11-21T12:08:28;43.10;;;24.70;;
34695;SDS011;20918;51.138;17.370;2023-11-21T12:11:32;46.30;;;25.70;;
34695;SDS011;20918;51.138;17.370;2023-11-21T12:14:33;52.30;;;28.80;;
34695;SDS011;20918;51.138;17.370;2023-11-21T12:17:37;36.20;;;20.70;;
34695;SDS011;20918;51.138;17.370;2023-11-21T12:20:38;44.80;;;25.50;;
34695;SDS011;20918;51.138;17.370;2023-11-21T12:23:41;52.00;;;29.20;;
34695;SDS011;20918;51.138;17.370;2023-11-21T12:26:41;28.30;;;17.70;;
34695;SDS011;20918;51.138;17.370;2023-11-21T12:29:44;77.00;;;38.30;;
34695;SDS011;20918;51.138;17.370;2023-11-21T12:32:47;43.90;;;23.90;;
34695;SDS011;20918;51.138;17.370;2023-11-21T12:35:51;30.00;;;17.40;;
34695;SDS011;20918;51.138;17.370;2023-11-21T12:38:53;25.60;;;16.10;;
34695;SDS011;20918;51.138;17.370;2023-11-21T12:41:54;22.60;;;13.30;;
34695;SDS011;20918;51.138;17.370;2023-11-21T12:45:08;26.90;;;15.40;;
34695;SDS011;20918;51.138;17.370;2023-11-21T12:48:08;16.20;;;9.40;;
34695;SDS011;20918;51.138;17.370;2023-11-21T12:51:11;16.60;;;9.00;;
34695;SDS011;20918;51.138;17.370;2023-11-21T12:54:14;20.60;;;10.10;;
34695;SDS011;20918;51.138;17.370;2023-11-21T12:57:15;12.90;;;8.60;;
34695;SDS011;20918;51.138;17.370;2023-11-21T13:00:17;46.30;;;17.10;;
34695;SDS011;20918;51.138;17.370;2023-11-21T13:03:28;44.70;;;20.20;;
34695;SDS011;20918;51.138;17.370;2023-11-21T13:06:29;44.50;;;20.70;;
34695;SDS011;20918;51.138;17.370;2023-11-21T13:09:34;32.50;;;16.60;;
34695;SDS011;20918;51.138;17.370;2023-11-21T13:12:34;42.10;;;20.10;;
34695;SDS011;20918;51.138;17.370;2023-11-21T13:15:39;28.90;;;15.20;;
34695;SDS011;20918;51.138;17.370;2023-11-21T13:18:41;33.30;;;17.80;;
34695;SDS011;20918;51.138;17.370;2023-11-21T13:21:41;23.30;;;14.70;;
34695;SDS011;20918;51.138;17.370;2023-11-21T13:24:42;31.20;;;16.00;;
34695;SDS011;20918;51.138;17.370;2023-11-21T13:27:43;22.70;;;12.80;;
34695;SDS011;20918;51.138;17.370;2023-11-21T13:30:47;29.80;;;14.20;;
34695;SDS011;20918;51.138;17.370;2023-11-21T13:33:48;35.50;;;17.60;;
34695;SDS011;20918;51.138;17.370;2023-11-21T13:36:55;27.80;;;15.20;;
34695;SDS011;20918;51.138;17.370;2023-11-21T13:39:58;29.10;;;19.50;;
34695;SDS011;20918;51.138;17.370;2023-11-21T13:42:59;26.20;;;18.80;;
34695;SDS011;20918;51.138;17.370;2023-11-21T13:46:04;25.10;;;19.80;;
34695;SDS011;20918;51.138;17.370;2023-11-21T13:49:13;36.30;;;27.30;;
34695;SDS011;20918;51.138;17.370;2023-11-21T13:52:15;53.60;;;28.80;;
34695;SDS011;20918;51.138;17.370;2023-11-21T13:55:17;69.80;;;31.40;;
34695;SDS011;20918;51.138;17.370;2023-11-21T13:58:18;46.00;;;26.10;;
34695;SDS011;20918;51.138;17.370;2023-11-21T14:01:25;60.90;;;35.10;;
34695;SDS011;20918;51.138;17.370;2023-11-21T14:04:29;44.90;;;27.00;;
34695;SDS011;20918;51.138;17.370;2023-11-21T14:07:30;53.80;;;29.80;;
34695;SDS011;20918;51.138;17.370;2023-11-21T14:10:35;50.60;;;29.00;;
34695;SDS011;20918;51.138;17.370;2023-11-21T14:13:43;45.20;;;27.90;;
34695;SDS011;20918;51.138;17.370;2023-11-21T14:16:47;35.20;;;25.00;;
34695;SDS011;20918;51.138;17.370;2023-11-21T14:19:49;32.80;;;22.10;;
34695;SDS011;20918;51.138;17.370;2023-11-21T14:22:50;30.50;;;20.80;;
34695;SDS011;20918;51.138;17.370;2023-11-21T14:25:51;30.90;;;21.10;;
34695;SDS011;20918;51.138;17.370;2023-11-21T14:28:52;30.60;;;21.80;;
34695;SDS011;20918;51.138;17.370;2023-11-21T14:31:54;24.90;;;18.20;;
34695;SDS011;20918;51.138;17.370;2023-11-21T14:34:57;28.40;;;20.60;;
34695;SDS011;20918;51.138;17.370;2023-11-21T14:38:00;29.50;;;21.60;;
34695;SDS011;20918;51.138;17.370;2023-11-21T14:41:07;32.50;;;22.90;;
34695;SDS011;20918;51.138;17.370;2023-11-21T14:44:08;49.10;;;31.90;;
34695;SDS011;20918;51.138;17.370;2023-11-21T14:47:12;26.30;;;20.90;;
34695;SDS011;20918;51.138;17.370;2023-11-21T14:50:16;23.80;;;16.90;;
34695;SDS011;20918;51.138;17.370;2023-11-21T14:53:35;20.90;;;15.70;;
34695;SDS011;20918;51.138;17.370;2023-11-21T14:56:54;22.10;;;15.80;;
34695;SDS011;20918;51.138;17.370;2023-11-21T14:59:54;26.60;;;18.60;;
34695;SDS011;20918;51.138;17.370;2023-11-21T15:02:58;30.30;;;21.90;;
34695;SDS011;20918;51.138;17.370;2023-11-21T15:05:59;37.30;;;26.30;;
34695;SDS011;20918;51.138;17.370;2023-11-21T15:09:20;34.90;;;25.40;;
34695;SDS011;20918;51.138;17.370;2023-11-21T15:12:35;34.80;;;24.30;;
34695;SDS011;20918;51.138;17.370;2023-11-21T15:15:38;34.50;;;22.50;;
34695;SDS011;20918;51.138;17.370;2023-11-21T15:18:39;35.90;;;23.40;;
34695;SDS011;20918;51.138;17.370;2023-11-21T15:21:41;34.60;;;22.50;;
34695;SDS011;20918;51.138;17.370;2023-11-21T15:24:42;40.90;;;25.40;;
34695;SDS011;20918;51.138;17.370;2023-11-21T15:27:45;38.80;;;23.60;;
34695;SDS011;20918;51.138;17.370;2023-11-21T15:30:49;35.90;;;23.80;;
34695;SDS011;20918;51.138;17.370;2023-11-21T15:33:51;39.30;;;26.10;;
34695;SDS011;20918;51.138;17.370;2023-11-21T15:37:00;37.80;;;25.60;;
34695;SDS011;20918;51.138;17.370;2023-11-21T15:40:01;40.20;;;25.00;;
34695;SDS011;20918;51.138;17.370;2023-11-21T15:43:05;36.40;;;23.90;;
34695;SDS011;20918;51.138;17.370;2023-11-21T15:46:07;27.90;;;20.00;;
34695;SDS011;20918;51.138;17.370;2023-11-21T15:49:07;28.10;;;18.30;;
34695;SDS011;20918;51.138;17.370;2023-11-21T15:52:12;26.70;;;19.40;;
34695;SDS011;20918;51.138;17.370;2023-11-21T15:58:13;24.90;;;18.20;;
34695;SDS011;20918;51.138;17.370;2023-11-21T16:01:14;24.20;;;17.30;;
34695;SDS011;20918;51.138;17.370;2023-11-21T16:04:15;27.40;;;18.80;;
34695;SDS011;20918;51.138;17.370;2023-11-21T16:07:17;28.40;;;20.50;;
34695;SDS011;20918;51.138;17.370;2023-11-21T16:10:18;29.80;;;20.90;;
34695;SDS011;20918;51.138;17.370;2023-11-21T16:16:20;32.20;;;23.80;;
34695;SDS011;20918;51.138;17.370;2023-11-21T16:19:22;33.00;;;22.20;;
34695;SDS011;20918;51.138;17.370;2023-11-21T16:22:22;34.10;;;22.40;;
34695;SDS011;20918;51.138;17.370;2023-11-21T16:25:23;32.80;;;21.40;;
34695;SDS011;20918;51.138;17.370;2023-11-21T16:28:23;30.40;;;20.90;;
34695;SDS011;20918;51.138;17.370;2023-11-21T16:31:25;28.20;;;19.40;;
34695;SDS011;20918;51.138;17.370;2023-11-21T16:34:26;21.00;;;16.10;;
34695;SDS011;20918;51.138;17.370;2023-11-21T16:37:27;20.60;;;13.90;;
34695;SDS011;20918;51.138;17.370;2023-11-21T16:40:27;26.60;;;17.10;;
34695;SDS011;20918;51.138;17.370;2023-11-21T16:43:28;26.60;;;18.50;;
34695;SDS011;20918;51.138;17.370;2023-11-21T16:46:28;26.00;;;19.90;;
34695;SDS011;20918;51.138;17.370;2023-11-21T16:49:29;27.80;;;19.90;;
34695;SDS011;20918;51.138;17.370;2023-11-21T16:52:29;28.40;;;21.00;;
34695;SDS011;20918;51.138;17.370;2023-11-21T16:55:31;29.70;;;20.60;;
34695;SDS011;20918;51.138;17.370;2023-11-21T16:58:32;30.40;;;22.00;;
34695;SDS011;20918;51.138;17.370;2023-11-21T17:01:33;31.40;;;22.00;;
34695;SDS011;20918;51.138;17.370;2023-11-21T17:04:34;38.10;;;25.00;;
34695;SDS011;20918;51.138;17.370;2023-11-21T17:07:34;35.30;;;24.90;;
34695;SDS011;20918;51.138;17.370;2023-11-21T17:10:35;38.70;;;25.70;;
34695;SDS011;20918;51.138;17.370;2023-11-21T17:13:35;33.80;;;23.30;;
34695;SDS011;20918;51.138;17.370;2023-11-21T17:16:37;29.70;;;20.90;;
34695;SDS011;20918;51.138;17.370;2023-11-21T17:19:37;29.60;;;20.90;;
34695;SDS011;20918;51.138;17.370;2023-11-21T17:22:38;30.20;;;20.20;;
34695;SDS011;20918;51.138;17.370;2023-11-21T17:25:40;27.20;;;19.40;;
34695;SDS011;20918;51.138;17.370;2023-11-21T17:28:41;28.00;;;19.20;;
34695;SDS011;20918;51.138;17.370;2023-11-21T17:31:45;29.90;;;19.80;;
34695;SDS011;20918;51.138;17.370;2023-11-21T17:34:46;31.60;;;19.90;;
34695;SDS011;20918;51.138;17.370;2023-11-21T17:37:48;33.70;;;21.90;;
34695;SDS011;20918;51.138;17.370;2023-11-21T17:40:48;30.50;;;21.20;;
34695;SDS011;20918;51.138;17.370;2023-11-21T17:43:49;31.10;;;20.40;;
34695;SDS011;20918;51.138;17.370;2023-11-21T17:46:49;30.50;;;19.80;;
34695;SDS011;20918;51.138;17.370;2023-11-21T17:49:50;33.00;;;21.80;;
34695;SDS011;20918;51.138;17.370;2023-11-21T17:52:51;34.40;;;19.50;;
34695;SDS011;20918;51.138;17.370;2023-11-21T17:55:52;32.00;;;19.50;;
34695;SDS011;20918;51.138;17.370;2023-11-21T18:01:54;28.70;;;19.40;;
34695;SDS011;20918;51.138;17.370;2023-11-21T18:07:56;34.00;;;21.60;;
34695;SDS011;20918;51.138;17.370;2023-11-21T18:10:57;36.70;;;22.70;;
34695;SDS011;20918;51.138;17.370;2023-11-21T18:13:59;35.00;;;22.60;;
34695;SDS011;20918;51.138;17.370;2023-11-21T18:17:00;30.80;;;21.50;;
34695;SDS011;20918;51.138;17.370;2023-11-21T18:20:00;34.70;;;22.30;;
34695;SDS011;20918;51.138;17.370;2023-11-21T18:26:02;33.50;;;21.00;;
34695;SDS011;20918;51.138;17.370;2023-11-21T18:29:02;29.40;;;21.10;;
34695;SDS011;20918;51.138;17.370;2023-11-21T18:32:03;35.00;;;22.70;;
34695;SDS011;20918;51.138;17.370;2023-11-21T18:35:09;33.10;;;21.10;;
34695;SDS011;20918;51.138;17.370;2023-11-21T18:38:10;32.50;;;21.70;;